Terminal Aerodrome Forecast
Issued by NWS

Home | Current Version | Previous Version | Text Only | Print | Product List | Glossary On
Versions: 1 2 3 4 5 6 7 8 9 10 11 12 13 14 15 16 17 18
000
FTUS41 KBTV 311100
TAFMSS
TAF
KMSS 311122Z 3112/0112 21003KT P6SM SCT040 BKN080
     FM311400 22008KT 6SM -SHRA VCTS BKN035CB OVC060
     FM311700 22009KT P6SM VCSH BKN045
     FM312100 23005KT P6SM SCT050=

USA.gov is the U.S. government's official web portal to all federal, state and local government web resources and services.